sensor_id;sensor_type;location;lat;lon;timestamp;temperature;humidity
18581;DHT22;9420;50.876;7.012;2022-10-24T00:00:56;14.50;99.90
18581;DHT22;9420;50.876;7.012;2022-10-24T00:03:24;14.50;99.90
18581;DHT22;9420;50.876;7.012;2022-10-24T00:05:51;14.60;99.90
18581;DHT22;9420;50.876;7.012;2022-10-24T00:08:19;14.60;99.90
18581;DHT22;9420;50.876;7.012;2022-10-24T00:10:47;14.60;99.90
18581;DHT22;9420;50.876;7.012;2022-10-24T00:13:16;14.60;99.90
18581;DHT22;9420;50.876;7.012;2022-10-24T00:15:44;14.60;99.90
18581;DHT22;9420;50.876;7.012;2022-10-24T00:18:14;14.60;99.90
18581;DHT22;9420;50.876;7.012;2022-10-24T00:20:42;14.70;99.90
18581;DHT22;9420;50.876;7.012;2022-10-24T00:23:09;14.70;99.90
18581;DHT22;9420;50.876;7.012;2022-10-24T00:25:38;14.70;99.90
18581;DHT22;9420;50.876;7.012;2022-10-24T00:28:05;14.60;99.90
18581;DHT22;9420;50.876;7.012;2022-10-24T00:30:32;14.70;99.90
18581;DHT22;9420;50.876;7.012;2022-10-24T00:32:59;14.70;99.90
18581;DHT22;9420;50.876;7.012;2022-10-24T00:35:28;14.70;99.90
18581;DHT22;9420;50.876;7.012;2022-10-24T00:37:55;14.70;99.90
18581;DHT22;9420;50.876;7.012;2022-10-24T00:40:23;14.70;99.90
18581;DHT22;9420;50.876;7.012;2022-10-24T00:42:50;14.70;99.90
18581;DHT22;9420;50.876;7.012;2022-10-24T00:45:39;14.70;99.90
18581;DHT22;9420;50.876;7.012;2022-10-24T00:48:14;14.70;99.90
18581;DHT22;9420;50.876;7.012;2022-10-24T00:50:50;14.70;99.90
18581;DHT22;9420;50.876;7.012;2022-10-24T00:53:20;14.70;99.90
18581;DHT22;9420;50.876;7.012;2022-10-24T00:55:52;14.80;99.90
18581;DHT22;9420;50.876;7.012;2022-10-24T00:58:26;14.80;99.90
18581;DHT22;9420;50.876;7.012;2022-10-24T01:00:55;14.80;99.90
18581;DHT22;9420;50.876;7.012;2022-10-24T01:03:23;14.80;99.90
18581;DHT22;9420;50.876;7.012;2022-10-24T01:06:13;14.80;99.90
18581;DHT22;9420;50.876;7.012;2022-10-24T01:09:00;14.80;99.90
18581;DHT22;9420;50.876;7.012;2022-10-24T01:11:46;14.70;99.90
18581;DHT22;9420;50.876;7.012;2022-10-24T01:14:29;14.70;99.90
18581;DHT22;9420;50.876;7.012;2022-10-24T01:17:12;14.70;99.90
18581;DHT22;9420;50.876;7.012;2022-10-24T01:23:41;14.60;99.90
18581;DHT22;9420;50.876;7.012;2022-10-24T01:29:45;14.50;99.90
18581;DHT22;9420;50.876;7.012;2022-10-24T01:32:22;14.50;99.90
18581;DHT22;9420;50.876;7.012;2022-10-24T01:35:00;14.50;99.90
18581;DHT22;9420;50.876;7.012;2022-10-24T01:37:36;14.60;99.90
18581;DHT22;9420;50.876;7.012;2022-10-24T01:40:12;14.50;99.90
18581;DHT22;9420;50.876;7.012;2022-10-24T01:42:43;14.50;99.90
18581;DHT22;9420;50.876;7.012;2022-10-24T01:45:20;14.50;99.90
18581;DHT22;9420;50.876;7.012;2022-10-24T01:47:54;14.50;99.90
18581;DHT22;9420;50.876;7.012;2022-10-24T01:50:25;14.50;99.90
18581;DHT22;9420;50.876;7.012;2022-10-24T01:52:56;14.50;99.90
18581;DHT22;9420;50.876;7.012;2022-10-24T01:55:24;14.50;99.90
18581;DHT22;9420;50.876;7.012;2022-10-24T01:57:51;14.40;99.90
18581;DHT22;9420;50.876;7.012;2022-10-24T02:00:21;14.40;99.90
18581;DHT22;9420;50.876;7.012;2022-10-24T02:02:51;14.30;99.90
18581;DHT22;9420;50.876;7.012;2022-10-24T02:05:26;14.30;99.90
18581;DHT22;9420;50.876;7.012;2022-10-24T02:08:01;14.30;99.90
18581;DHT22;9420;50.876;7.012;2022-10-24T02:10:33;14.30;99.90
18581;DHT22;9420;50.876;7.012;2022-10-24T02:13:06;14.30;99.90
18581;DHT22;9420;50.876;7.012;2022-10-24T02:15:41;14.30;99.90
18581;DHT22;9420;50.876;7.012;2022-10-24T02:18:12;14.30;99.90
18581;DHT22;9420;50.876;7.012;2022-10-24T02:20:44;14.40;99.90
18581;DHT22;9420;50.876;7.012;2022-10-24T02:23:22;14.40;99.90
18581;DHT22;9420;50.876;7.012;2022-10-24T02:25:59;14.40;99.90
18581;DHT22;9420;50.876;7.012;2022-10-24T02:28:32;14.40;99.90
18581;DHT22;9420;50.876;7.012;2022-10-24T02:31:08;14.40;99.90
18581;DHT22;9420;50.876;7.012;2022-10-24T02:33:41;14.30;99.90
18581;DHT22;9420;50.876;7.012;2022-10-24T02:36:13;14.30;99.90
18581;DHT22;9420;50.876;7.012;2022-10-24T02:38:46;14.30;99.90
18581;DHT22;9420;50.876;7.012;2022-10-24T02:41:20;14.30;99.90
18581;DHT22;9420;50.876;7.012;2022-10-24T02:43:52;14.30;99.90
18581;DHT22;9420;50.876;7.012;2022-10-24T02:46:22;14.30;99.90
18581;DHT22;9420;50.876;7.012;2022-10-24T02:48:56;14.30;99.90
18581;DHT22;9420;50.876;7.012;2022-10-24T02:51:27;14.30;99.90
18581;DHT22;9420;50.876;7.012;2022-10-24T02:53:58;14.20;99.90
18581;DHT22;9420;50.876;7.012;2022-10-24T02:56:26;14.20;99.90
18581;DHT22;9420;50.876;7.012;2022-10-24T02:58:54;14.20;99.90
18581;DHT22;9420;50.876;7.012;2022-10-24T03:01:22;14.20;99.90
18581;DHT22;9420;50.876;7.012;2022-10-24T03:03:49;14.20;99.90
18581;DHT22;9420;50.876;7.012;2022-10-24T03:06:16;14.20;99.90
18581;DHT22;9420;50.876;7.012;2022-10-24T03:08:45;14.20;99.90
18581;DHT22;9420;50.876;7.012;2022-10-24T03:11:12;14.20;99.90
18581;DHT22;9420;50.876;7.012;2022-10-24T03:13:39;14.20;99.90
18581;DHT22;9420;50.876;7.012;2022-10-24T03:16:06;14.20;99.90
18581;DHT22;9420;50.876;7.012;2022-10-24T03:18:34;14.30;99.90
18581;DHT22;9420;50.876;7.012;2022-10-24T03:21:02;14.30;99.90
18581;DHT22;9420;50.876;7.012;2022-10-24T03:23:29;14.30;99.90
18581;DHT22;9420;50.876;7.012;2022-10-24T03:25:57;14.30;99.90
18581;DHT22;9420;50.876;7.012;2022-10-24T03:28:24;14.30;99.90
18581;DHT22;9420;50.876;7.012;2022-10-24T03:30:52;14.30;99.90
18581;DHT22;9420;50.876;7.012;2022-10-24T03:33:20;14.30;99.90
18581;DHT22;9420;50.876;7.012;2022-10-24T03:35:52;14.30;99.90
18581;DHT22;9420;50.876;7.012;2022-10-24T03:38:21;14.30;99.90
18581;DHT22;9420;50.876;7.012;2022-10-24T03:40:48;14.30;99.90
18581;DHT22;9420;50.876;7.012;2022-10-24T03:43:16;14.30;99.90
18581;DHT22;9420;50.876;7.012;2022-10-24T03:45:44;14.30;99.90
18581;DHT22;9420;50.876;7.012;2022-10-24T03:48:12;14.30;99.90
18581;DHT22;9420;50.876;7.012;2022-10-24T03:50:39;14.40;99.90
18581;DHT22;9420;50.876;7.012;2022-10-24T03:53:08;14.40;99.90
18581;DHT22;9420;50.876;7.012;2022-10-24T03:55:35;14.40;99.90
18581;DHT22;9420;50.876;7.012;2022-10-24T03:58:02;14.40;99.90
18581;DHT22;9420;50.876;7.012;2022-10-24T04:00:30;14.40;99.90
18581;DHT22;9420;50.876;7.012;2022-10-24T04:02:59;14.40;99.90
18581;DHT22;9420;50.876;7.012;2022-10-24T04:05:26;14.40;99.90
18581;DHT22;9420;50.876;7.012;2022-10-24T04:07:53;14.50;99.90
18581;DHT22;9420;50.876;7.012;2022-10-24T04:10:21;14.40;99.90
18581;DHT22;9420;50.876;7.012;2022-10-24T04:12:48;14.40;99.90
18581;DHT22;9420;50.876;7.012;2022-10-24T04:15:15;14.40;99.90
18581;DHT22;9420;50.876;7.012;2022-10-24T04:17:42;14.40;99.90
18581;DHT22;9420;50.876;7.012;2022-10-24T04:20:11;14.40;99.90
18581;DHT22;9420;50.876;7.012;2022-10-24T04:22:38;14.40;99.90
18581;DHT22;9420;50.876;7.012;2022-10-24T04:25:05;14.50;99.90
18581;DHT22;9420;50.876;7.012;2022-10-24T04:27:34;14.50;99.90
18581;DHT22;9420;50.876;7.012;2022-10-24T04:30:06;14.50;99.90
18581;DHT22;9420;50.876;7.012;2022-10-24T04:32:34;14.60;99.90
18581;DHT22;9420;50.876;7.012;2022-10-24T04:35:01;14.60;99.90
18581;DHT22;9420;50.876;7.012;2022-10-24T04:37:29;14.60;99.90
18581;DHT22;9420;50.876;7.012;2022-10-24T04:39:56;14.60;99.90
18581;DHT22;9420;50.876;7.012;2022-10-24T04:42:25;14.60;99.90
18581;DHT22;9420;50.876;7.012;2022-10-24T04:44:53;14.70;99.90
18581;DHT22;9420;50.876;7.012;2022-10-24T04:47:20;14.70;99.90
18581;DHT22;9420;50.876;7.012;2022-10-24T04:49:47;14.70;99.90
18581;DHT22;9420;50.876;7.012;2022-10-24T04:52:14;14.70;99.90
18581;DHT22;9420;50.876;7.012;2022-10-24T04:54:41;14.70;99.90
18581;DHT22;9420;50.876;7.012;2022-10-24T04:57:08;14.70;99.90
18581;DHT22;9420;50.876;7.012;2022-10-24T04:59:35;14.70;99.90
18581;DHT22;9420;50.876;7.012;2022-10-24T05:02:03;14.70;99.90
18581;DHT22;9420;50.876;7.012;2022-10-24T05:04:31;14.70;99.90
18581;DHT22;9420;50.876;7.012;2022-10-24T05:06:58;14.70;99.90
18581;DHT22;9420;50.876;7.012;2022-10-24T05:09:25;14.60;99.90
18581;DHT22;9420;50.876;7.012;2022-10-24T05:11:53;14.70;99.90
18581;DHT22;9420;50.876;7.012;2022-10-24T05:14:21;14.70;99.90
18581;DHT22;9420;50.876;7.012;2022-10-24T05:16:48;14.70;99.90
18581;DHT22;9420;50.876;7.012;2022-10-24T05:19:17;14.60;99.90
18581;DHT22;9420;50.876;7.012;2022-10-24T05:21:45;14.60;99.90
18581;DHT22;9420;50.876;7.012;2022-10-24T05:24:12;14.60;99.90
18581;DHT22;9420;50.876;7.012;2022-10-24T05:26:39;14.60;99.90
18581;DHT22;9420;50.876;7.012;2022-10-24T05:29:06;14.60;99.90
18581;DHT22;9420;50.876;7.012;2022-10-24T05:31:33;14.50;99.90
18581;DHT22;9420;50.876;7.012;2022-10-24T05:34:00;14.50;99.90
18581;DHT22;9420;50.876;7.012;2022-10-24T05:36:28;14.50;99.90
18581;DHT22;9420;50.876;7.012;2022-10-24T05:38:55;14.40;99.90
18581;DHT22;9420;50.876;7.012;2022-10-24T05:41:22;14.40;99.90
18581;DHT22;9420;50.876;7.012;2022-10-24T05:43:52;14.40;99.90
18581;DHT22;9420;50.876;7.012;2022-10-24T05:46:19;14.40;99.90
18581;DHT22;9420;50.876;7.012;2022-10-24T05:48:46;14.40;99.90
18581;DHT22;9420;50.876;7.012;2022-10-24T05:51:13;14.30;99.90
18581;DHT22;9420;50.876;7.012;2022-10-24T05:53:42;14.40;99.90
18581;DHT22;9420;50.876;7.012;2022-10-24T05:56:09;14.40;99.90
18581;DHT22;9420;50.876;7.012;2022-10-24T05:58:36;14.40;99.90
18581;DHT22;9420;50.876;7.012;2022-10-24T06:01:03;14.40;99.90
18581;DHT22;9420;50.876;7.012;2022-10-24T06:03:30;14.40;99.90
18581;DHT22;9420;50.876;7.012;2022-10-24T06:06:02;14.40;99.90
18581;DHT22;9420;50.876;7.012;2022-10-24T06:08:32;14.40;99.90
18581;DHT22;9420;50.876;7.012;2022-10-24T06:11:01;14.50;99.90
18581;DHT22;9420;50.876;7.012;2022-10-24T06:13:30;14.60;99.90
18581;DHT22;9420;50.876;7.012;2022-10-24T06:15:57;14.60;99.90
18581;DHT22;9420;50.876;7.012;2022-10-24T06:18:24;14.60;99.90
18581;DHT22;9420;50.876;7.012;2022-10-24T06:20:52;14.80;99.90
18581;DHT22;9420;50.876;7.012;2022-10-24T06:23:20;14.80;99.90
18581;DHT22;9420;50.876;7.012;2022-10-24T06:25:48;14.80;99.90
18581;DHT22;9420;50.876;7.012;2022-10-24T06:28:16;14.80;99.90
18581;DHT22;9420;50.876;7.012;2022-10-24T06:30:43;14.80;99.90
18581;DHT22;9420;50.876;7.012;2022-10-24T06:33:12;14.80;99.90
18581;DHT22;9420;50.876;7.012;2022-10-24T06:35:39;14.90;99.90
18581;DHT22;9420;50.876;7.012;2022-10-24T06:38:07;15.00;99.90
18581;DHT22;9420;50.876;7.012;2022-10-24T06:40:36;15.00;99.90
18581;DHT22;9420;50.876;7.012;2022-10-24T06:43:05;15.10;99.90
18581;DHT22;9420;50.876;7.012;2022-10-24T06:45:33;15.20;99.90
18581;DHT22;9420;50.876;7.012;2022-10-24T06:48:03;15.30;99.90
18581;DHT22;9420;50.876;7.012;2022-10-24T06:50:30;15.50;99.90
18581;DHT22;9420;50.876;7.012;2022-10-24T06:52:57;15.50;99.90
18581;DHT22;9420;50.876;7.012;2022-10-24T06:55:24;15.70;99.90
18581;DHT22;9420;50.876;7.012;2022-10-24T06:57:52;15.60;99.90
18581;DHT22;9420;50.876;7.012;2022-10-24T07:00:19;15.70;99.90
18581;DHT22;9420;50.876;7.012;2022-10-24T07:02:48;15.60;99.90
18581;DHT22;9420;50.876;7.012;2022-10-24T07:05:15;15.80;99.90
18581;DHT22;9420;50.876;7.012;2022-10-24T07:07:43;15.90;99.90
18581;DHT22;9420;50.876;7.012;2022-10-24T07:10:12;16.10;99.90
18581;DHT22;9420;50.876;7.012;2022-10-24T07:12:40;16.20;99.90
18581;DHT22;9420;50.876;7.012;2022-10-24T07:15:09;16.10;99.90
18581;DHT22;9420;50.876;7.012;2022-10-24T07:17:41;16.20;99.90
18581;DHT22;9420;50.876;7.012;2022-10-24T07:20:12;16.40;99.90
18581;DHT22;9420;50.876;7.012;2022-10-24T07:22:40;16.60;99.90
18581;DHT22;9420;50.876;7.012;2022-10-24T07:25:09;16.60;99.90
18581;DHT22;9420;50.876;7.012;2022-10-24T07:27:37;16.60;99.90
18581;DHT22;9420;50.876;7.012;2022-10-24T07:30:06;16.60;99.90
18581;DHT22;9420;50.876;7.012;2022-10-24T07:32:34;16.50;99.90
18581;DHT22;9420;50.876;7.012;2022-10-24T07:35:02;16.40;99.90
18581;DHT22;9420;50.876;7.012;2022-10-24T07:37:30;16.50;99.90
18581;DHT22;9420;50.876;7.012;2022-10-24T07:39:57;16.60;99.90
18581;DHT22;9420;50.876;7.012;2022-10-24T07:42:24;16.60;99.90
18581;DHT22;9420;50.876;7.012;2022-10-24T07:44:51;16.70;99.90
18581;DHT22;9420;50.876;7.012;2022-10-24T07:47:18;16.90;99.90
18581;DHT22;9420;50.876;7.012;2022-10-24T07:49:45;16.80;99.90
18581;DHT22;9420;50.876;7.012;2022-10-24T07:52:12;17.00;99.90
18581;DHT22;9420;50.876;7.012;2022-10-24T07:54:40;17.00;99.90
18581;DHT22;9420;50.876;7.012;2022-10-24T07:57:07;17.00;99.90
18581;DHT22;9420;50.876;7.012;2022-10-24T07:59:34;17.00;99.90
18581;DHT22;9420;50.876;7.012;2022-10-24T08:02:02;17.00;99.90
18581;DHT22;9420;50.876;7.012;2022-10-24T08:04:29;17.00;99.90
18581;DHT22;9420;50.876;7.012;2022-10-24T08:06:57;17.00;99.90
18581;DHT22;9420;50.876;7.012;2022-10-24T08:09:24;17.00;99.90
18581;DHT22;9420;50.876;7.012;2022-10-24T08:11:53;17.00;99.90
18581;DHT22;9420;50.876;7.012;2022-10-24T08:14:20;17.20;99.90
18581;DHT22;9420;50.876;7.012;2022-10-24T08:16:47;17.20;99.90
18581;DHT22;9420;50.876;7.012;2022-10-24T08:19:14;17.10;99.90
18581;DHT22;9420;50.876;7.012;2022-10-24T08:21:41;17.00;99.90
18581;DHT22;9420;50.876;7.012;2022-10-24T08:24:08;17.00;99.90
18581;DHT22;9420;50.876;7.012;2022-10-24T08:26:36;17.20;99.90
18581;DHT22;9420;50.876;7.012;2022-10-24T08:29:07;17.30;99.90
18581;DHT22;9420;50.876;7.012;2022-10-24T08:31:36;17.40;99.90
18581;DHT22;9420;50.876;7.012;2022-10-24T08:34:03;17.50;99.90
18581;DHT22;9420;50.876;7.012;2022-10-24T08:36:32;17.60;99.90
18581;DHT22;9420;50.876;7.012;2022-10-24T08:39:01;17.70;99.90
18581;DHT22;9420;50.876;7.012;2022-10-24T08:41:34;17.50;99.90
18581;DHT22;9420;50.876;7.012;2022-10-24T08:44:10;17.50;99.90
18581;DHT22;9420;50.876;7.012;2022-10-24T08:46:46;17.50;99.90
18581;DHT22;9420;50.876;7.012;2022-10-24T08:49:27;17.50;99.90
18581;DHT22;9420;50.876;7.012;2022-10-24T08:52:00;17.60;99.90
18581;DHT22;9420;50.876;7.012;2022-10-24T08:54:35;17.70;99.90
18581;DHT22;9420;50.876;7.012;2022-10-24T08:57:16;17.80;99.90
18581;DHT22;9420;50.876;7.012;2022-10-24T08:59:49;17.90;99.90
18581;DHT22;9420;50.876;7.012;2022-10-24T09:02:21;18.00;99.90
18581;DHT22;9420;50.876;7.012;2022-10-24T09:04:54;17.90;99.90
18581;DHT22;9420;50.876;7.012;2022-10-24T09:07:24;17.90;99.90
18581;DHT22;9420;50.876;7.012;2022-10-24T09:10:00;18.00;99.90
18581;DHT22;9420;50.876;7.012;2022-10-24T09:12:33;18.10;99.90
18581;DHT22;9420;50.876;7.012;2022-10-24T09:15:07;18.10;99.90
18581;DHT22;9420;50.876;7.012;2022-10-24T09:17:42;18.10;99.90
18581;DHT22;9420;50.876;7.012;2022-10-24T09:20:20;18.20;99.90
18581;DHT22;9420;50.876;7.012;2022-10-24T09:22:50;18.20;99.90
18581;DHT22;9420;50.876;7.012;2022-10-24T09:25:21;18.30;99.90
18581;DHT22;9420;50.876;7.012;2022-10-24T09:27:50;18.40;99.90
18581;DHT22;9420;50.876;7.012;2022-10-24T09:30:20;18.50;99.90
18581;DHT22;9420;50.876;7.012;2022-10-24T09:32:50;18.60;99.90
18581;DHT22;9420;50.876;7.012;2022-10-24T09:35:21;18.70;99.90
18581;DHT22;9420;50.876;7.012;2022-10-24T09:37:57;18.80;99.90
18581;DHT22;9420;50.876;7.012;2022-10-24T09:40:49;18.90;99.90
18581;DHT22;9420;50.876;7.012;2022-10-24T09:43:19;19.00;99.90
18581;DHT22;9420;50.876;7.012;2022-10-24T09:45:52;19.20;99.90
18581;DHT22;9420;50.876;7.012;2022-10-24T09:48:32;19.30;99.90
18581;DHT22;9420;50.876;7.012;2022-10-24T09:51:06;19.30;99.90
18581;DHT22;9420;50.876;7.012;2022-10-24T09:53:36;19.40;99.90
18581;DHT22;9420;50.876;7.012;2022-10-24T09:56:08;19.30;99.90
18581;DHT22;9420;50.876;7.012;2022-10-24T09:58:37;19.20;99.90
18581;DHT22;9420;50.876;7.012;2022-10-24T10:01:17;19.30;99.90
18581;DHT22;9420;50.876;7.012;2022-10-24T10:04:00;19.30;99.90
18581;DHT22;9420;50.876;7.012;2022-10-24T10:06:30;19.50;99.90
18581;DHT22;9420;50.876;7.012;2022-10-24T10:08:59;19.50;99.90
18581;DHT22;9420;50.876;7.012;2022-10-24T10:11:28;19.30;99.90
18581;DHT22;9420;50.876;7.012;2022-10-24T10:13:58;19.20;99.90
18581;DHT22;9420;50.876;7.012;2022-10-24T10:16:31;19.20;99.90
18581;DHT22;9420;50.876;7.012;2022-10-24T10:19:03;19.10;99.90
18581;DHT22;9420;50.876;7.012;2022-10-24T10:21:50;19.10;99.90
18581;DHT22;9420;50.876;7.012;2022-10-24T10:24:24;19.30;99.90
18581;DHT22;9420;50.876;7.012;2022-10-24T10:26:53;19.20;99.90
18581;DHT22;9420;50.876;7.012;2022-10-24T10:29:21;19.40;99.90
18581;DHT22;9420;50.876;7.012;2022-10-24T10:31:56;19.50;99.90
18581;DHT22;9420;50.876;7.012;2022-10-24T10:34:31;19.50;99.90
18581;DHT22;9420;50.876;7.012;2022-10-24T10:37:25;19.50;99.90
18581;DHT22;9420;50.876;7.012;2022-10-24T10:40:14;19.60;99.90
18581;DHT22;9420;50.876;7.012;2022-10-24T10:43:01;19.70;99.90
18581;DHT22;9420;50.876;7.012;2022-10-24T10:45:45;19.80;99.90
18581;DHT22;9420;50.876;7.012;2022-10-24T10:51:19;19.50;99.90
18581;DHT22;9420;50.876;7.012;2022-10-24T10:53:56;19.40;99.90
18581;DHT22;9420;50.876;7.012;2022-10-24T10:56:38;19.40;99.90
18581;DHT22;9420;50.876;7.012;2022-10-24T10:59:28;19.20;99.90
18581;DHT22;9420;50.876;7.012;2022-10-24T11:02:20;19.20;99.90
18581;DHT22;9420;50.876;7.012;2022-10-24T11:05:21;19.20;99.90
18581;DHT22;9420;50.876;7.012;2022-10-24T11:08:05;19.20;99.90
18581;DHT22;9420;50.876;7.012;2022-10-24T11:10:46;19.20;99.90
18581;DHT22;9420;50.876;7.012;2022-10-24T11:13:19;19.10;99.90
18581;DHT22;9420;50.876;7.012;2022-10-24T11:15:55;19.20;99.90
18581;DHT22;9420;50.876;7.012;2022-10-24T11:18:31;19.30;99.90
18581;DHT22;9420;50.876;7.012;2022-10-24T11:21:06;19.30;99.90
18581;DHT22;9420;50.876;7.012;2022-10-24T11:23:38;19.20;99.90
18581;DHT22;9420;50.876;7.012;2022-10-24T11:26:12;19.20;99.90
18581;DHT22;9420;50.876;7.012;2022-10-24T11:28:51;19.10;99.90
18581;DHT22;9420;50.876;7.012;2022-10-24T11:31:25;18.90;99.90
18581;DHT22;9420;50.876;7.012;2022-10-24T11:34:00;18.80;99.90
18581;DHT22;9420;50.876;7.012;2022-10-24T11:36:37;18.80;99.90
18581;DHT22;9420;50.876;7.012;2022-10-24T11:39:14;18.80;99.90
18581;DHT22;9420;50.876;7.012;2022-10-24T11:41:54;18.80;99.90
18581;DHT22;9420;50.876;7.012;2022-10-24T11:44:37;18.80;99.90
18581;DHT22;9420;50.876;7.012;2022-10-24T11:50:13;18.60;99.90
18581;DHT22;9420;50.876;7.012;2022-10-24T11:52:50;18.60;99.90
18581;DHT22;9420;50.876;7.012;2022-10-24T11:55:21;18.50;99.90
18581;DHT22;9420;50.876;7.012;2022-10-24T11:57:54;18.60;99.90
18581;DHT22;9420;50.876;7.012;2022-10-24T12:00:27;18.60;99.90
18581;DHT22;9420;50.876;7.012;2022-10-24T12:06:21;18.70;99.90
18581;DHT22;9420;50.876;7.012;2022-10-24T12:09:26;18.70;99.90
18581;DHT22;9420;50.876;7.012;2022-10-24T12:12:19;18.70;99.90
18581;DHT22;9420;50.876;7.012;2022-10-24T12:15:28;18.80;99.90
18581;DHT22;9420;50.876;7.012;2022-10-24T12:18:12;18.80;99.90
18581;DHT22;9420;50.876;7.012;2022-10-24T12:20:55;18.80;99.90
18581;DHT22;9420;50.876;7.012;2022-10-24T12:23:27;18.70;99.90
18581;DHT22;9420;50.876;7.012;2022-10-24T12:26:05;18.70;99.90
18581;DHT22;9420;50.876;7.012;2022-10-24T12:28:34;18.70;99.90
18581;DHT22;9420;50.876;7.012;2022-10-24T12:31:17;18.80;99.90
18581;DHT22;9420;50.876;7.012;2022-10-24T12:37:39;18.80;99.90
18581;DHT22;9420;50.876;7.012;2022-10-24T12:43:31;18.70;99.90
18581;DHT22;9420;50.876;7.012;2022-10-24T12:46:01;18.70;99.90
18581;DHT22;9420;50.876;7.012;2022-10-24T12:49:15;18.70;99.90
18581;DHT22;9420;50.876;7.012;2022-10-24T12:51:46;18.70;99.90
18581;DHT22;9420;50.876;7.012;2022-10-24T12:54:14;18.60;99.90
18581;DHT22;9420;50.876;7.012;2022-10-24T12:57:18;18.60;99.90
18581;DHT22;9420;50.876;7.012;2022-10-24T12:59:50;18.80;99.90
18581;DHT22;9420;50.876;7.012;2022-10-24T13:02:32;18.80;99.90
18581;DHT22;9420;50.876;7.012;2022-10-24T13:05:33;18.80;99.90
18581;DHT22;9420;50.876;7.012;2022-10-24T13:08:29;18.80;99.90
18581;DHT22;9420;50.876;7.012;2022-10-24T13:11:25;18.90;99.90
18581;DHT22;9420;50.876;7.012;2022-10-24T13:17:34;18.90;99.90
18581;DHT22;9420;50.876;7.012;2022-10-24T13:20:16;19.20;99.90
18581;DHT22;9420;50.876;7.012;2022-10-24T13:22:47;19.10;99.90
18581;DHT22;9420;50.876;7.012;2022-10-24T13:25:28;19.00;99.90
18581;DHT22;9420;50.876;7.012;2022-10-24T13:28:39;18.90;99.90
18581;DHT22;9420;50.876;7.012;2022-10-24T13:34:27;18.80;99.90
18581;DHT22;9420;50.876;7.012;2022-10-24T13:37:02;18.90;99.90
18581;DHT22;9420;50.876;7.012;2022-10-24T13:39:36;18.80;99.90
18581;DHT22;9420;50.876;7.012;2022-10-24T13:45:06;18.80;99.90
18581;DHT22;9420;50.876;7.012;2022-10-24T13:47:50;18.70;99.90
18581;DHT22;9420;50.876;7.012;2022-10-24T13:50:21;18.60;99.90
18581;DHT22;9420;50.876;7.012;2022-10-24T13:52:55;18.60;99.90
18581;DHT22;9420;50.876;7.012;2022-10-24T13:55:28;19.00;99.90
18581;DHT22;9420;50.876;7.012;2022-10-24T13:58:07;18.90;99.90
18581;DHT22;9420;50.876;7.012;2022-10-24T14:00:37;19.00;99.90
18581;DHT22;9420;50.876;7.012;2022-10-24T14:03:12;18.90;99.90
18581;DHT22;9420;50.876;7.012;2022-10-24T14:05:45;18.90;99.90
18581;DHT22;9420;50.876;7.012;2022-10-24T14:08:21;18.80;99.90
18581;DHT22;9420;50.876;7.012;2022-10-24T14:10:50;18.70;99.90
18581;DHT22;9420;50.876;7.012;2022-10-24T14:13:22;18.60;99.90
18581;DHT22;9420;50.876;7.012;2022-10-24T14:15:52;18.60;99.90
18581;DHT22;9420;50.876;7.012;2022-10-24T14:18:22;18.60;99.90
18581;DHT22;9420;50.876;7.012;2022-10-24T14:20:51;18.50;99.90
18581;DHT22;9420;50.876;7.012;2022-10-24T14:23:25;18.50;99.90
18581;DHT22;9420;50.876;7.012;2022-10-24T14:25:57;18.50;99.90
18581;DHT22;9420;50.876;7.012;2022-10-24T14:28:30;18.40;99.90
18581;DHT22;9420;50.876;7.012;2022-10-24T14:31:01;18.50;99.90
18581;DHT22;9420;50.876;7.012;2022-10-24T14:33:31;18.40;99.90
18581;DHT22;9420;50.876;7.012;2022-10-24T14:36:07;18.40;99.90
18581;DHT22;9420;50.876;7.012;2022-10-24T14:38:35;18.30;99.90
18581;DHT22;9420;50.876;7.012;2022-10-24T14:41:03;18.30;99.90
18581;DHT22;9420;50.876;7.012;2022-10-24T14:43:37;18.20;99.90
18581;DHT22;9420;50.876;7.012;2022-10-24T14:46:23;18.30;99.90
18581;DHT22;9420;50.876;7.012;2022-10-24T14:49:01;18.40;99.90
18581;DHT22;9420;50.876;7.012;2022-10-24T14:51:47;19.50;99.90
18581;DHT22;9420;50.876;7.012;2022-10-24T14:54:19;20.00;99.90
18581;DHT22;9420;50.876;7.012;2022-10-24T14:56:49;19.40;99.90
18581;DHT22;9420;50.876;7.012;2022-10-24T14:59:23;18.90;99.90
18581;DHT22;9420;50.876;7.012;2022-10-24T15:01:55;18.60;99.90
18581;DHT22;9420;50.876;7.012;2022-10-24T15:04:29;18.40;99.90
18581;DHT22;9420;50.876;7.012;2022-10-24T15:07:23;18.30;99.90
18581;DHT22;9420;50.876;7.012;2022-10-24T15:09:55;18.20;99.90
18581;DHT22;9420;50.876;7.012;2022-10-24T15:12:31;18.20;99.90
18581;DHT22;9420;50.876;7.012;2022-10-24T15:15:23;18.20;99.90
18581;DHT22;9420;50.876;7.012;2022-10-24T15:17:56;18.20;99.90
18581;DHT22;9420;50.876;7.012;2022-10-24T15:20:26;18.20;99.90
18581;DHT22;9420;50.876;7.012;2022-10-24T15:22:58;18.20;99.90
18581;DHT22;9420;50.876;7.012;2022-10-24T15:25:29;18.20;99.90
18581;DHT22;9420;50.876;7.012;2022-10-24T15:27:59;18.30;99.90
18581;DHT22;9420;50.876;7.012;2022-10-24T15:30:31;18.30;99.90
18581;DHT22;9420;50.876;7.012;2022-10-24T15:33:03;18.20;99.90
18581;DHT22;9420;50.876;7.012;2022-10-24T15:35:34;18.20;99.90
18581;DHT22;9420;50.876;7.012;2022-10-24T15:38:12;18.00;99.90
18581;DHT22;9420;50.876;7.012;2022-10-24T15:40:43;17.90;99.90
18581;DHT22;9420;50.876;7.012;2022-10-24T15:43:15;17.80;99.90
18581;DHT22;9420;50.876;7.012;2022-10-24T15:45:45;17.70;99.90
18581;DHT22;9420;50.876;7.012;2022-10-24T15:48:12;17.70;99.90
18581;DHT22;9420;50.876;7.012;2022-10-24T15:50:42;17.60;99.90
18581;DHT22;9420;50.876;7.012;2022-10-24T15:53:18;17.60;99.90
18581;DHT22;9420;50.876;7.012;2022-10-24T15:55:47;17.50;99.90
18581;DHT22;9420;50.876;7.012;2022-10-24T15:58:16;17.50;99.90
18581;DHT22;9420;50.876;7.012;2022-10-24T16:00:44;17.40;99.90
18581;DHT22;9420;50.876;7.012;2022-10-24T16:03:14;17.40;99.90
18581;DHT22;9420;50.876;7.012;2022-10-24T16:05:48;17.40;99.90
18581;DHT22;9420;50.876;7.012;2022-10-24T16:08:18;17.40;99.90
18581;DHT22;9420;50.876;7.012;2022-10-24T16:10:47;17.30;99.90
18581;DHT22;9420;50.876;7.012;2022-10-24T16:13:17;17.30;99.90
18581;DHT22;9420;50.876;7.012;2022-10-24T16:15:48;17.40;99.90
18581;DHT22;9420;50.876;7.012;2022-10-24T16:18:16;17.40;99.90
18581;DHT22;9420;50.876;7.012;2022-10-24T16:20:43;17.40;99.90
18581;DHT22;9420;50.876;7.012;2022-10-24T16:23:13;17.40;99.90
18581;DHT22;9420;50.876;7.012;2022-10-24T16:25:42;17.40;99.90
18581;DHT22;9420;50.876;7.012;2022-10-24T16:28:10;17.30;99.90
18581;DHT22;9420;50.876;7.012;2022-10-24T16:30:39;17.30;99.90
18581;DHT22;9420;50.876;7.012;2022-10-24T16:33:07;17.20;99.90
18581;DHT22;9420;50.876;7.012;2022-10-24T16:35:38;17.20;99.90
18581;DHT22;9420;50.876;7.012;2022-10-24T16:38:07;17.20;99.90
18581;DHT22;9420;50.876;7.012;2022-10-24T16:40:37;17.10;99.90
18581;DHT22;9420;50.876;7.012;2022-10-24T16:43:05;17.10;99.90
18581;DHT22;9420;50.876;7.012;2022-10-24T16:45:32;17.00;99.90
18581;DHT22;9420;50.876;7.012;2022-10-24T16:48:00;17.00;99.90
18581;DHT22;9420;50.876;7.012;2022-10-24T16:50:29;17.10;99.90